Time;durP1;ratioP1;P1;durP2;ratioP2;P2;SDS_P1;SDS_P2;PMS_P1;PMS_P2;Temp;Humidity;BMP_temperature;BMP_pressure;BME280_temperature;BME280_humidity;BME280_pressure;Samples;Min_cycle;Max_cycle;Signal;HPM_P1;HPM_P2
2023/04/08 00:04:36;;;;;;;11.23;5.82;;;8.60;99.90;;;;;;20821536;28;20170;-42
2023/04/08 00:14:37;;;;;;;9.02;5.47;;;8.40;99.90;;;;;;20805922;28;20045;-42
2023/04/08 00:24:39;;;;;;;9.43;4.80;;;8.30;99.90;;;;;;20821113;28;20107;-42
2023/04/08 00:34:40;;;;;;;12.38;5.53;;;8.20;99.90;;;;;;20807008;28;20505;-42
2023/04/08 00:44:42;;;;;;;8.07;4.93;;;7.80;99.90;;;;;;20831647;28;20037;-42
2023/04/08 00:54:42;;;;;;;8.55;3.63;;;7.60;99.90;;;;;;20824982;28;20064;-42
2023/04/08 01:05:02;;;;;;;11.20;4.25;;;7.40;99.90;;;;;;20826519;28;20040;-42
2023/04/08 01:15:05;;;;;;;15.93;6.85;;;7.30;99.90;;;;;;20763229;28;20783;-42
2023/04/08 01:25:13;;;;;;;15.65;6.35;;;7.20;99.90;;;;;;20758332;28;20054;-42
2023/04/08 01:35:15;;;;;;;11.45;6.50;;;7.10;99.90;;;;;;20745714;28;20114;-42
2023/04/08 01:45:17;;;;;;;13.85;6.25;;;7.30;99.90;;;;;;20744481;28;20136;-42
2023/04/08 01:55:19;;;;;;;6.95;4.40;;;7.50;99.90;;;;;;20758581;28;20042;-42
2023/04/08 02:05:20;;;;;;;5.63;3.22;;;7.70;99.90;;;;;;20758998;28;20092;-41
2023/04/08 02:15:21;;;;;;;5.53;3.25;;;7.60;99.90;;;;;;20754567;28;20493;-42
2023/04/08 02:25:24;;;;;;;7.05;4.55;;;7.60;99.90;;;;;;20745777;28;20049;-42
2023/04/08 02:35:27;;;;;;;5.75;3.45;;;7.60;99.90;;;;;;20752505;28;20034;-42
2023/04/08 02:45:36;;;;;;;7.15;3.55;;;7.50;99.90;;;;;;20747712;28;20064;-42
2023/04/08 02:55:38;;;;;;;5.57;2.70;;;7.40;99.90;;;;;;20745503;28;20062;-42
2023/04/08 03:05:40;;;;;;;5.78;4.22;;;7.20;99.90;;;;;;20742718;28;20882;-41
2023/04/08 03:15:41;;;;;;;8.40;3.70;;;7.20;99.90;;;;;;20734089;28;20041;-42
2023/04/08 03:25:42;;;;;;;5.72;3.05;;;7.30;99.90;;;;;;20754854;28;20073;-42
2023/04/08 03:35:43;;;;;;;6.90;3.45;;;7.30;99.90;;;;;;20751893;28;20060;-42
2023/04/08 03:45:44;;;;;;;11.48;5.93;;;7.30;99.90;;;;;;20741726;28;20041;-42
2023/04/08 03:55:49;;;;;;;11.00;4.38;;;7.40;99.90;;;;;;20738956;28;20515;-42
2023/04/08 04:05:50;;;;;;;13.68;8.30;;;7.50;99.90;;;;;;20747294;28;20134;-42
2023/04/08 04:15:51;;;;;;;12.75;6.32;;;7.60;99.90;;;;;;20762253;28;20485;-41
2023/04/08 04:25:52;;;;;;;10.02;5.13;;;7.70;99.90;;;;;;20759640;28;20405;-42
2023/04/08 04:35:53;;;;;;;9.00;5.07;;;7.70;99.90;;;;;;20742363;28;20622;-42
2023/04/08 04:45:55;;;;;;;13.20;4.68;;;7.70;99.90;;;;;;20742356;28;20049;-42
2023/04/08 04:55:56;;;;;;;11.43;6.45;;;7.60;99.90;;;;;;20737854;28;20231;-41
2023/04/08 05:05:57;;;;;;;12.32;6.28;;;7.60;99.90;;;;;;20742112;28;20042;-42
2023/04/08 05:15:58;;;;;;;11.00;6.28;;;7.60;99.90;;;;;;20747213;28;20050;-41
2023/04/08 05:25:59;;;;;;;17.80;8.40;;;7.60;99.90;;;;;;20742624;28;20119;-42
2023/04/08 05:36:01;;;;;;;15.77;8.30;;;7.60;99.90;;;;;;20751132;28;20425;-42
2023/04/08 05:46:09;;;;;;;21.83;10.88;;;7.60;99.90;;;;;;20768392;28;20050;-41
2023/04/08 05:56:10;;;;;;;13.00;7.55;;;7.50;99.90;;;;;;20750407;28;20693;-42
2023/04/08 06:06:11;;;;;;;9.10;5.18;;;7.30;99.90;;;;;;20751759;28;20096;-42
2023/04/08 06:16:15;;;;;;;10.80;5.93;;;7.10;99.90;;;;;;20782301;28;20032;-41
2023/04/08 06:26:16;;;;;;;7.78;4.70;;;7.00;99.90;;;;;;20760355;28;20925;-42
2023/04/08 06:36:17;;;;;;;9.73;5.97;;;6.60;99.90;;;;;;20751089;28;20394;-41
2023/04/08 06:46:18;;;;;;;22.35;6.95;;;6.50;99.90;;;;;;20763030;28;20433;-42
2023/04/08 06:56:21;;;;;;;6.13;5.15;;;6.60;99.90;;;;;;20751653;28;20139;-42
2023/04/08 07:06:22;;;;;;;10.25;5.45;;;6.60;99.90;;;;;;20757200;28;20102;-42
2023/04/08 07:16:23;;;;;;;9.43;6.03;;;6.70;99.90;;;;;;20736537;28;20041;-42
2023/04/08 07:26:24;;;;;;;10.20;5.40;;;6.70;99.90;;;;;;20746651;28;20656;-42
2023/04/08 07:36:25;;;;;;;8.38;4.40;;;6.80;99.90;;;;;;20762962;28;20100;-41
2023/04/08 07:46:26;;;;;;;6.80;4.90;;;7.00;99.90;;;;;;20768797;28;20056;-42
2023/04/08 07:56:27;;;;;;;7.72;3.90;;;7.30;99.90;;;;;;20796484;28;20033;-42
2023/04/08 08:06:31;;;;;;;9.30;4.22;;;7.60;85.40;;;;;;20817199;28;20033;-42
2023/04/08 08:16:32;;;;;;;8.63;4.32;;;7.80;36.30;;;;;;20813043;28;20052;-42
2023/04/08 08:26:36;;;;;;;6.57;3.90;;;8.30;8.80;;;;;;20794148;28;20091;-42
2023/04/08 08:36:37;;;;;;;6.40;3.78;;;8.60;1.00;;;;;;20815173;28;20049;-42
2023/04/08 08:46:43;;;;;;;9.23;4.22;;;8.90;1.00;;;;;;20814051;28;20040;-42
2023/04/08 08:56:44;;;;;;;6.30;3.05;;;9.30;1.00;;;;;;20752668;28;20624;-42
2023/04/08 09:06:48;;;;;;;7.15;3.75;;;9.70;1.00;;;;;;20747989;28;20394;-42
2023/04/08 09:16:50;;;;;;;7.18;3.40;;;10.10;1.00;;;;;;20756067;28;20038;-42
2023/04/08 09:26:51;;;;;;;5.75;2.60;;;10.60;1.00;;;;;;20769771;28;20476;-42
2023/04/08 09:36:53;;;;;;;5.30;3.00;;;11.30;1.00;;;;;;20766560;28;20092;-42
2023/04/08 09:47:07;;;;;;;6.03;2.58;;;11.50;1.00;;;;;;20768877;28;20459;-42
2023/04/08 09:57:15;;;;;;;4.30;2.58;;;11.80;1.00;;;;;;20769345;28;20653;-42
2023/04/08 10:07:18;;;;;;;5.38;2.50;;;12.10;1.00;;;;;;20775742;28;20042;-42
2023/04/08 10:17:26;;;;;;;5.93;2.55;;;12.50;1.00;;;;;;20775916;28;20543;-42
2023/04/08 10:27:42;;;;;;;5.30;2.50;;;12.70;1.00;;;;;;20766983;28;20457;-43
2023/04/08 10:37:43;;;;;;;5.63;2.83;;;12.90;1.00;;;;;;20761653;28;20931;-41
2023/04/08 10:47:44;;;;;;;6.18;3.08;;;13.30;1.00;;;;;;20752782;28;20054;-41
2023/04/08 10:57:45;;;;;;;5.00;2.58;;;13.90;1.00;;;;;;20756491;28;20048;-41
2023/04/08 11:07:46;;;;;;;5.75;2.90;;;14.50;1.00;;;;;;20768162;28;20049;-41
2023/04/08 11:17:48;;;;;;;4.95;2.70;;;14.80;1.00;;;;;;20760617;28;20052;-41
2023/04/08 11:27:50;;;;;;;7.55;2.85;;;15.80;1.00;;;;;;20761868;28;20890;-41
2023/04/08 11:37:51;;;;;;;5.47;2.72;;;15.80;1.00;;;;;;20736613;28;20061;-41
2023/04/08 11:47:52;;;;;;;4.20;2.10;;;16.00;1.00;;;;;;20751943;28;20054;-41
2023/04/08 11:57:55;;;;;;;5.93;2.85;;;16.40;1.00;;;;;;20756822;28;20041;-40
2023/04/08 12:07:56;;;;;;;5.57;2.83;;;16.60;1.00;;;;;;20755311;28;20100;-41
2023/04/08 12:17:57;;;;;;;4.30;2.25;;;16.60;1.00;;;;;;20752891;28;20417;-41
2023/04/08 12:27:58;;;;;;;7.50;3.72;;;16.50;1.00;;;;;;20776831;28;20068;-41
2023/04/08 12:37:59;;;;;;;6.15;2.78;;;16.90;1.00;;;;;;20735260;28;20037;-41
2023/04/08 12:48:01;;;;;;;5.13;2.33;;;16.70;1.00;;;;;;20755919;28;20053;-41
2023/04/08 12:58:04;;;;;;;6.30;3.10;;;16.90;1.00;;;;;;20752973;28;20053;-41
2023/04/08 13:08:05;;;;;;;4.80;2.78;;;16.60;1.00;;;;;;20769285;28;20029;-41
2023/04/08 13:18:06;;;;;;;7.60;4.25;;;16.80;1.00;;;;;;20789433;28;20037;-41
2023/04/08 13:28:07;;;;;;;6.72;3.10;;;16.30;1.00;;;;;;20816338;28;20551;-40
2023/04/08 13:38:08;;;;;;;6.75;2.92;;;15.80;1.00;;;;;;20829082;28;20048;-40
2023/04/08 13:48:10;;;;;;;3.83;1.95;;;15.70;1.00;;;;;;20822315;28;20052;-41
2023/04/08 13:58:11;;;;;;;5.38;2.05;;;16.80;1.00;;;;;;20810170;28;20143;-41
2023/04/08 14:08:12;;;;;;;3.13;1.55;;;17.90;1.00;;;;;;20816293;28;20053;-41
2023/04/08 14:18:16;;;;;;;6.07;2.28;;;17.80;1.00;;;;;;20830352;28;20115;-38
2023/04/08 14:28:17;;;;;;;4.97;2.47;;;17.00;1.00;;;;;;20807213;28;20044;-41
2023/04/08 14:38:19;;;;;;;8.48;2.72;;;15.80;1.00;;;;;;20812994;28;20117;-41
2023/04/08 14:48:20;;;;;;;9.55;3.05;;;15.40;1.00;;;;;;20825338;28;20044;-41
2023/04/08 14:58:22;;;;;;;5.85;3.00;;;15.20;1.00;;;;;;20823210;28;20037;-41
2023/04/08 15:08:23;;;;;;;5.60;2.60;;;14.80;1.00;;;;;;20824854;28;20101;-40
2023/04/08 15:18:24;;;;;;;4.93;2.75;;;14.50;1.00;;;;;;20814376;28;20033;-41
2023/04/08 15:28:26;;;;;;;5.72;2.20;;;14.20;1.00;;;;;;20816167;28;20504;-40
2023/04/08 15:38:27;;;;;;;8.98;3.42;;;14.40;1.00;;;;;;20787273;28;20176;-40
2023/04/08 15:48:28;;;;;;;7.60;3.65;;;14.50;1.00;;;;;;20748831;28;20473;-41
2023/04/08 15:58:29;;;;;;;6.57;3.55;;;14.30;1.00;;;;;;20735448;28;20445;-41
2023/04/08 16:08:32;;;;;;;9.25;3.78;;;13.90;1.00;;;;;;20734425;28;20037;-41
2023/04/08 16:18:33;;;;;;;7.47;2.95;;;13.70;1.00;;;;;;20731124;28;20033;-40
2023/04/08 16:28:35;;;;;;;9.43;3.05;;;13.80;1.00;;;;;;20741028;28;20310;-41
2023/04/08 16:38:36;;;;;;;7.15;3.97;;;13.60;1.00;;;;;;20739510;28;20046;-41
2023/04/08 16:48:38;;;;;;;8.32;3.60;;;13.40;1.00;;;;;;20717369;28;20077;-41
2023/04/08 16:58:39;;;;;;;5.45;2.97;;;13.10;1.00;;;;;;20721428;28;20467;-41
2023/04/08 17:08:42;;;;;;;6.78;3.45;;;12.70;1.00;;;;;;20727834;28;20046;-41
2023/04/08 17:18:44;;;;;;;7.78;3.80;;;12.50;1.00;;;;;;20730594;28;20096;-41
2023/04/08 17:28:45;;;;;;;9.20;3.25;;;12.40;1.00;;;;;;20733340;28;20576;-41
2023/04/08 17:38:48;;;;;;;7.00;3.17;;;12.20;1.00;;;;;;20747376;28;20404;-41
2023/04/08 17:48:49;;;;;;;8.15;3.42;;;11.90;1.00;;;;;;20748541;28;20050;-41
2023/04/08 17:58:50;;;;;;;6.65;3.40;;;11.80;1.00;;;;;;20753612;28;20046;-41
2023/04/08 18:08:51;;;;;;;7.35;2.60;;;11.60;1.00;;;;;;20739370;28;20489;-41
2023/04/08 18:18:52;;;;;;;6.65;3.55;;;11.30;1.00;;;;;;20733322;28;20494;-41
2023/04/08 18:28:53;;;;;;;7.30;3.80;;;11.10;1.00;;;;;;20738033;28;20485;-41
2023/04/08 18:38:54;;;;;;;6.50;3.80;;;10.90;1.00;;;;;;20740102;28;20420;-41
2023/04/08 18:48:55;;;;;;;6.68;2.97;;;10.80;1.00;;;;;;20740065;28;20846;-41
2023/04/08 18:58:56;;;;;;;9.32;4.28;;;10.70;1.00;;;;;;20748651;28;20037;-40
2023/04/08 19:08:57;;;;;;;8.25;4.63;;;10.70;1.00;;;;;;20735029;28;20033;-41
2023/04/08 19:18:58;;;;;;;7.28;3.70;;;10.60;1.00;;;;;;20740347;28;20060;-41
2023/04/08 19:28:59;;;;;;;12.10;5.10;;;10.50;1.00;;;;;;20739618;28;20049;-41
2023/04/08 19:39:02;;;;;;;8.02;3.83;;;10.30;1.00;;;;;;20736096;28;20944;-41
2023/04/08 19:49:03;;;;;;;7.70;4.40;;;10.20;1.00;;;;;;20732082;28;20041;-41
2023/04/08 19:59:04;;;;;;;9.50;5.00;;;10.10;1.00;;;;;;20736275;28;20683;-41
2023/04/08 20:09:05;;;;;;;7.18;4.95;;;9.90;1.00;;;;;;20737923;28;20448;-41
2023/04/08 20:19:06;;;;;;;8.77;3.70;;;9.80;1.00;;;;;;20710350;28;20465;-41
2023/04/08 20:29:07;;;;;;;8.32;4.63;;;9.70;6.10;;;;;;20724427;28;20045;-42
2023/04/08 20:39:09;;;;;;;6.70;4.03;;;9.50;7.70;;;;;;20726820;28;20457;-41
2023/04/08 20:49:10;;;;;;;8.48;4.93;;;9.50;12.00;;;;;;20728503;28;20265;-41
2023/04/08 20:59:11;;;;;;;11.15;4.30;;;9.50;16.90;;;;;;20722428;28;20021;-41
2023/04/08 21:09:13;;;;;;;11.02;5.47;;;9.50;19.90;;;;;;20736365;28;20315;-42
2023/04/08 21:19:14;;;;;;;7.75;3.63;;;9.50;22.00;;;;;;20749877;28;20182;-42
2023/04/08 21:29:15;;;;;;;7.60;4.22;;;9.50;23.00;;;;;;20756122;28;20095;-42
2023/04/08 21:39:16;;;;;;;13.30;5.22;;;9.40;23.10;;;;;;20741968;28;20044;-42
2023/04/08 21:49:17;;;;;;;8.55;4.25;;;9.40;19.10;;;;;;20746017;28;20571;-41
2023/04/08 21:59:18;;;;;;;10.45;5.68;;;9.30;19.30;;;;;;20755780;28;20601;-42
2023/04/08 22:09:19;;;;;;;7.35;4.75;;;9.30;19.10;;;;;;20732326;28;20030;-41
2023/04/08 22:19:20;;;;;;;15.20;5.60;;;9.10;20.10;;;;;;20752526;28;20186;-42
2023/04/08 22:29:21;;;;;;;10.57;5.32;;;9.10;22.00;;;;;;20742295;28;20100;-42
2023/04/08 22:39:24;;;;;;;9.85;4.47;;;9.10;25.70;;;;;;20748621;28;20048;-41
2023/04/08 22:49:26;;;;;;;10.77;6.10;;;9.00;25.80;;;;;;20748157;28;20500;-41
2023/04/08 22:59:27;;;;;;;10.60;5.25;;;9.10;24.20;;;;;;20738603;28;20096;-42
2023/04/08 23:09:28;;;;;;;9.13;4.72;;;9.10;26.00;;;;;;20738795;28;20103;-42
2023/04/08 23:19:29;;;;;;;13.35;6.40;;;9.00;26.00;;;;;;20749577;28;20034;-42
2023/04/08 23:29:30;;;;;;;10.43;5.10;;;9.10;25.30;;;;;;20738908;28;20033;-42
2023/04/08 23:39:31;;;;;;;9.50;6.20;;;9.10;28.20;;;;;;20735588;28;20034;-42
2023/04/08 23:49:32;;;;;;;12.45;5.28;;;9.10;27.30;;;;;;20754551;28;20160;-42
2023/04/08 23:59:33;;;;;;;12.90;5.95;;;9.10;23.00;;;;;;20741866;28;20046;-42
